Time;durP1;ratioP1;P1;durP2;ratioP2;P2;SDS_P1;SDS_P2;PMS_P1;PMS_P2;Temp;Humidity;BMP_temperature;BMP_pressure;BME280_temperature;BME280_humidity;BME280_pressure;Samples;Min_cycle;Max_cycle;Signal;HPM_P1;HPM_P2
2022/09/26 00:01:39;;;;;;;3.77;3.37;;;10.00;99.90;;;;;;5049737;28;20376;-69
2022/09/26 00:04:20;;;;;;;3.07;2.87;;;10.00;99.90;;;;;;5055881;28;20419;-67
2022/09/26 00:06:46;;;;;;;3.93;3.43;;;10.10;99.90;;;;;;5056446;28;20429;-69
2022/09/26 00:09:14;;;;;;;5.90;3.07;;;10.10;99.90;;;;;;5056769;28;20375;-69
2022/09/26 00:11:41;;;;;;;7.40;3.17;;;10.10;99.90;;;;;;5056710;28;20434;-67
2022/09/26 00:14:11;;;;;;;2.93;2.73;;;10.10;99.90;;;;;;5055694;28;20400;-69
2022/09/26 00:16:37;;;;;;;2.77;2.67;;;10.10;99.90;;;;;;5056505;28;20420;-68
2022/09/26 00:19:03;;;;;;;6.93;3.20;;;10.20;99.90;;;;;;5056475;28;20433;-68
2022/09/26 00:21:29;;;;;;;4.13;3.07;;;10.20;99.90;;;;;;5056477;28;20379;-67
2022/09/26 00:23:56;;;;;;;6.63;2.67;;;10.20;99.90;;;;;;5055638;28;20584;-69
2022/09/26 00:26:24;;;;;;;2.90;2.70;;;10.20;99.90;;;;;;5056043;28;20417;-71
2022/09/26 00:28:50;;;;;;;2.40;2.20;;;10.20;99.90;;;;;;5056276;28;20797;-70
2022/09/26 00:31:23;;;;;;;3.30;3.10;;;10.10;99.80;;;;;;5056226;28;20379;-69
2022/09/26 00:33:48;;;;;;;3.57;3.10;;;10.10;95.10;;;;;;5055479;28;20257;-68
2022/09/26 00:36:15;;;;;;;4.10;3.80;;;10.20;99.90;;;;;;5055956;28;20504;-67
2022/09/26 00:38:40;;;;;;;3.27;2.97;;;10.20;99.90;;;;;;5056033;28;20163;-69
2022/09/26 00:41:06;;;;;;;2.40;2.20;;;10.30;99.90;;;;;;5055066;28;20738;-67
2022/09/26 00:43:49;;;;;;;3.57;2.80;;;10.20;99.90;;;;;;5055747;28;20650;-68
2022/09/26 00:46:31;;;;;;;3.67;3.37;;;10.20;98.60;;;;;;5054697;28;20402;-68
2022/09/26 00:49:24;;;;;;;4.13;2.57;;;10.30;99.90;;;;;;5055841;28;20379;-67
2022/09/26 00:51:58;;;;;;;4.03;3.20;;;10.20;97.40;;;;;;5054530;28;20409;-69
2022/09/26 00:54:27;;;;;;;2.67;2.30;;;10.30;92.60;;;;;;5054784;28;20404;-70
2022/09/26 00:56:57;;;;;;;3.50;3.03;;;10.30;93.20;;;;;;5055630;28;20930;-69
2022/09/26 00:59:39;;;;;;;3.83;2.73;;;10.30;99.90;;;;;;5055585;28;20398;-69
2022/09/26 01:02:05;;;;;;;3.50;2.80;;;10.30;99.90;;;;;;5055605;28;20420;-67
2022/09/26 01:04:33;;;;;;;5.00;2.57;;;10.30;95.70;;;;;;5054539;28;21057;-67
2022/09/26 01:07:03;;;;;;;4.77;2.60;;;10.40;97.90;;;;;;5055644;28;20391;-70
2022/09/26 01:09:31;;;;;;;3.10;2.90;;;10.40;95.90;;;;;;5055650;28;20393;-66
2022/09/26 01:12:00;;;;;;;3.60;2.97;;;10.40;93.00;;;;;;5055532;28;20386;-69
2022/09/26 01:14:26;;;;;;;3.00;2.60;;;10.40;92.20;;;;;;5054140;28;20388;-68
2022/09/26 01:16:52;;;;;;;4.40;3.30;;;10.30;92.20;;;;;;5055286;28;20475;-66
2022/09/26 01:19:27;;;;;;;2.50;2.30;;;10.40;97.20;;;;;;5055371;28;20372;-69
2022/09/26 01:22:22;;;;;;;7.20;2.90;;;10.30;92.40;;;;;;5055384;28;20760;-69
2022/09/26 01:25:13;;;;;;;3.17;2.47;;;10.40;92.20;;;;;;5053019;28;20427;-68
2022/09/26 01:27:58;;;;;;;4.67;2.70;;;10.30;92.90;;;;;;5055174;28;20788;-66
2022/09/26 01:30:27;;;;;;;5.03;3.17;;;10.30;92.50;;;;;;5055142;28;20375;-69
2022/09/26 01:33:40;;;;;;;3.67;2.97;;;10.30;94.20;;;;;;5055003;28;20399;-70
2022/09/26 01:36:27;;;;;;;4.17;2.53;;;10.40;96.50;;;;;;5054816;28;20495;-67
2022/09/26 01:38:59;;;;;;;3.23;2.73;;;10.40;99.70;;;;;;5054898;28;20738;-70
2022/09/26 01:41:27;;;;;;;3.10;2.83;;;10.40;99.90;;;;;;5054947;28;20368;-67
2022/09/26 01:44:37;;;;;;;3.13;2.93;;;10.40;99.10;;;;;;5053990;28;20420;-67
2022/09/26 01:47:24;;;;;;;3.23;2.90;;;10.40;99.90;;;;;;5045415;28;20438;-66
2022/09/26 01:50:01;;;;;;;7.83;2.97;;;10.40;99.90;;;;;;5054824;28;20934;-69
2022/09/26 01:52:38;;;;;;;4.00;2.53;;;10.40;99.90;;;;;;5054605;28;20378;-66
2022/09/26 01:55:22;;;;;;;9.87;3.13;;;10.40;95.00;;;;;;5053735;28;20422;-68
2022/09/26 01:57:51;;;;;;;7.83;3.00;;;10.40;99.90;;;;;;5054776;28;20379;-66
2022/09/26 02:00:17;;;;;;;3.13;2.93;;;10.30;99.90;;;;;;5051454;28;20384;-68
2022/09/26 02:02:46;;;;;;;5.73;3.60;;;10.20;98.90;;;;;;5054123;28;20458;-70
2022/09/26 02:05:31;;;;;;;8.27;2.83;;;10.30;99.90;;;;;;5053381;28;20455;-68
2022/09/26 02:08:06;;;;;;;2.93;2.63;;;10.20;99.90;;;;;;5054513;28;20380;-69
2022/09/26 02:10:40;;;;;;;7.83;2.93;;;10.20;99.90;;;;;;5054429;28;20951;-69
2022/09/26 02:13:15;;;;;;;3.50;3.17;;;10.30;99.90;;;;;;5054286;28;20478;-70
2022/09/26 02:15:43;;;;;;;2.90;2.70;;;10.30;99.90;;;;;;5053426;28;20471;-69
2022/09/26 02:18:22;;;;;;;6.00;3.07;;;10.30;99.90;;;;;;5054289;28;20429;-66
2022/09/26 02:21:13;;;;;;;3.60;2.67;;;10.30;99.90;;;;;;5054162;28;20429;-68
2022/09/26 02:23:38;;;;;;;4.90;3.00;;;10.30;99.90;;;;;;5053499;28;20426;-70
2022/09/26 02:26:05;;;;;;;3.73;2.67;;;10.30;99.90;;;;;;5053204;28;20425;-68
2022/09/26 02:28:30;;;;;;;6.03;2.60;;;10.30;99.90;;;;;;5054031;28;20217;-67
2022/09/26 02:31:00;;;;;;;4.10;2.90;;;10.30;99.90;;;;;;5053981;28;20372;-69
2022/09/26 02:33:27;;;;;;;3.20;2.80;;;10.30;99.90;;;;;;5053745;28;20675;-66
2022/09/26 02:35:53;;;;;;;10.50;3.40;;;10.30;99.90;;;;;;5053319;28;20456;-66
2022/09/26 02:38:28;;;;;;;3.07;2.87;;;10.30;99.90;;;;;;5053673;28;20463;-66
2022/09/26 02:41:27;;;;;;;4.30;3.27;;;10.30;99.90;;;;;;5053827;28;20415;-66
2022/09/26 02:44:10;;;;;;;2.40;2.30;;;10.30;99.90;;;;;;5052853;28;20418;-66
2022/09/26 02:46:45;;;;;;;5.73;2.50;;;10.30;99.90;;;;;;5053601;28;20404;-69
2022/09/26 02:49:10;;;;;;;3.30;2.87;;;10.30;99.90;;;;;;5053574;28;20360;-67
2022/09/26 02:52:03;;;;;;;2.43;2.33;;;10.30;99.90;;;;;;5053535;28;20375;-69
2022/09/26 02:54:54;;;;;;;2.63;2.43;;;10.30;99.90;;;;;;5052899;28;20660;-69
2022/09/26 02:57:23;;;;;;;9.87;3.23;;;10.30;99.90;;;;;;5053368;28;20422;-69
2022/09/26 03:00:06;;;;;;;2.87;2.60;;;10.20;99.90;;;;;;5053432;28;20827;-68
2022/09/26 03:02:40;;;;;;;2.83;2.63;;;10.30;99.90;;;;;;5053337;28;20402;-68
2022/09/26 03:05:11;;;;;;;4.33;2.93;;;10.40;99.90;;;;;;5052703;28;20455;-69
2022/09/26 03:07:44;;;;;;;4.40;2.80;;;10.40;99.90;;;;;;5053266;28;20469;-70
2022/09/26 03:10:11;;;;;;;2.90;2.70;;;10.40;99.90;;;;;;5052053;28;20475;-67
2022/09/26 03:12:38;;;;;;;9.47;3.17;;;10.40;99.90;;;;;;5053556;28;20710;-68
2022/09/26 03:15:06;;;;;;;7.20;3.10;;;10.40;99.90;;;;;;5052694;28;20443;-68
2022/09/26 03:17:34;;;;;;;3.10;2.90;;;10.40;99.90;;;;;;5053299;28;20405;-68
2022/09/26 03:20:18;;;;;;;4.03;2.20;;;10.40;99.90;;;;;;5053281;28;20981;-67
2022/09/26 03:22:45;;;;;;;2.73;2.53;;;10.40;99.90;;;;;;5052306;28;20402;-70
2022/09/26 03:25:15;;;;;;;5.40;3.50;;;10.40;99.90;;;;;;5052393;28;20453;-66
2022/09/26 03:27:44;;;;;;;4.83;2.90;;;10.50;99.90;;;;;;5053082;28;20411;-67
2022/09/26 03:30:12;;;;;;;3.93;2.63;;;10.50;99.90;;;;;;5053271;28;20460;-69
2022/09/26 03:32:39;;;;;;;3.30;3.00;;;10.50;99.90;;;;;;5053132;28;20375;-69
2022/09/26 03:35:05;;;;;;;4.93;2.93;;;10.40;99.90;;;;;;5052338;28;20971;-66
2022/09/26 03:37:33;;;;;;;2.97;2.77;;;10.50;99.90;;;;;;5056660;28;20382;-67
2022/09/26 03:40:03;;;;;;;2.50;2.40;;;10.40;99.90;;;;;;5057149;28;20398;-69
2022/09/26 03:42:32;;;;;;;3.27;2.97;;;10.50;99.90;;;;;;5057453;28;20400;-66
2022/09/26 03:45:02;;;;;;;2.83;2.63;;;10.50;99.90;;;;;;5056193;28;20427;-70
2022/09/26 03:47:28;;;;;;;3.20;2.90;;;10.50;99.90;;;;;;5057084;28;20446;-69
2022/09/26 03:49:54;;;;;;;4.10;2.67;;;10.40;99.90;;;;;;5056856;28;20866;-66
2022/09/26 03:52:20;;;;;;;4.83;3.33;;;10.40;99.90;;;;;;5057100;28;20405;-69
2022/09/26 03:54:46;;;;;;;7.50;3.07;;;10.50;99.90;;;;;;5056207;28;20193;-67
2022/09/26 03:57:13;;;;;;;3.00;2.67;;;10.40;99.90;;;;;;5056983;28;20377;-67
2022/09/26 03:59:39;;;;;;;6.43;2.87;;;10.40;99.90;;;;;;5056691;28;20490;-66
2022/09/26 04:02:05;;;;;;;3.10;2.80;;;10.50;99.90;;;;;;5055230;28;20520;-66
2022/09/26 04:04:31;;;;;;;3.13;2.93;;;10.50;99.90;;;;;;5056036;28;20201;-68
2022/09/26 04:06:57;;;;;;;4.30;3.30;;;10.50;99.90;;;;;;5053353;28;20197;-69
2022/09/26 04:09:23;;;;;;;3.00;2.80;;;10.50;99.90;;;;;;5056691;28;20184;-66
2022/09/26 04:11:50;;;;;;;4.90;3.17;;;10.50;99.90;;;;;;5056525;28;20750;-69
2022/09/26 04:14:16;;;;;;;2.87;2.67;;;10.50;99.90;;;;;;5055775;28;20437;-68
2022/09/26 04:16:42;;;;;;;6.80;2.67;;;10.40;99.90;;;;;;5056519;28;20425;-66
2022/09/26 04:19:08;;;;;;;8.30;4.47;;;10.50;99.90;;;;;;5056465;28;20421;-66
2022/09/26 04:21:34;;;;;;;3.23;3.03;;;10.40;99.90;;;;;;5056544;28;20375;-68
2022/09/26 04:24:01;;;;;;;6.30;3.93;;;10.40;99.90;;;;;;5054292;28;20799;-70
2022/09/26 04:26:27;;;;;;;3.60;2.97;;;10.40;99.90;;;;;;5056116;28;20504;-66
2022/09/26 04:28:55;;;;;;;5.13;3.13;;;10.50;98.20;;;;;;5056307;28;20372;-66
2022/09/26 04:31:22;;;;;;;3.50;3.17;;;10.50;99.90;;;;;;5056193;28;20410;-68
2022/09/26 04:33:48;;;;;;;8.03;3.23;;;10.50;99.90;;;;;;5055546;28;20457;-66
2022/09/26 04:36:14;;;;;;;4.80;3.77;;;10.40;99.90;;;;;;5054729;28;20411;-66
2022/09/26 04:38:40;;;;;;;4.10;3.00;;;10.40;99.90;;;;;;5056243;28;20402;-69
2022/09/26 04:41:08;;;;;;;6.00;3.90;;;10.40;99.90;;;;;;5056053;28;20431;-66
2022/09/26 04:43:35;;;;;;;3.07;2.87;;;10.30;99.90;;;;;;5055640;28;20193;-68
2022/09/26 04:46:04;;;;;;;5.17;3.70;;;10.40;99.90;;;;;;5055325;28;20391;-68
2022/09/26 04:48:30;;;;;;;3.60;3.20;;;10.40;99.90;;;;;;5054972;28;20389;-68
2022/09/26 04:50:56;;;;;;;4.73;3.57;;;10.30;99.90;;;;;;5055901;28;20371;-66
2022/09/26 04:53:22;;;;;;;4.03;3.40;;;10.40;99.90;;;;;;5055662;28;20162;-66
2022/09/26 04:55:48;;;;;;;4.00;3.60;;;10.40;99.90;;;;;;5053939;28;20201;-68
2022/09/26 04:58:15;;;;;;;3.80;3.47;;;10.50;99.90;;;;;;5055581;28;20749;-66
2022/09/26 05:00:48;;;;;;;4.50;3.90;;;10.40;99.90;;;;;;5055599;28;20373;-68
2022/09/26 05:03:15;;;;;;;3.63;3.33;;;10.40;99.90;;;;;;5055499;28;20484;-66
2022/09/26 05:05:44;;;;;;;8.03;4.03;;;10.40;99.90;;;;;;5054832;28;20407;-66
2022/09/26 05:08:10;;;;;;;3.70;3.40;;;10.40;99.90;;;;;;5055416;28;20778;-70
2022/09/26 05:10:37;;;;;;;4.93;3.73;;;10.40;99.90;;;;;;5055272;28;20799;-70
2022/09/26 05:13:03;;;;;;;4.00;3.60;;;10.30;99.90;;;;;;5055549;28;20403;-68
2022/09/26 05:15:29;;;;;;;6.00;4.07;;;10.40;99.90;;;;;;5054631;28;20404;-68
2022/09/26 05:17:59;;;;;;;6.87;4.07;;;10.40;99.90;;;;;;5055403;28;20368;-69
2022/09/26 05:20:30;;;;;;;7.80;3.60;;;10.30;99.90;;;;;;5055279;28;20385;-67
2022/09/26 05:22:59;;;;;;;8.77;4.67;;;10.30;99.90;;;;;;5055252;28;20783;-70
2022/09/26 05:28:12;;;;;;;4.80;4.30;;;10.30;99.90;;;;;;5055516;28;20430;-68
2022/09/26 05:30:38;;;;;;;11.20;4.40;;;10.30;99.90;;;;;;5055124;28;20408;-68
2022/09/26 05:33:04;;;;;;;4.60;3.80;;;10.40;99.90;;;;;;5055228;28;20404;-66
2022/09/26 05:35:33;;;;;;;5.50;4.40;;;10.40;99.90;;;;;;5054195;28;20486;-66
2022/09/26 05:38:00;;;;;;;5.43;4.90;;;10.40;99.90;;;;;;5055065;28;20410;-67
2022/09/26 05:43:13;;;;;;;10.80;5.57;;;10.40;99.90;;;;;;5054962;28;20446;-67
2022/09/26 05:45:38;;;;;;;5.33;4.83;;;10.30;99.90;;;;;;5054120;28;20813;-71
2022/09/26 05:48:05;;;;;;;4.73;3.83;;;10.40;99.90;;;;;;5054755;28;20446;-66
2022/09/26 05:50:32;;;;;;;5.07;4.53;;;10.40;99.90;;;;;;5054753;28;20412;-67
2022/09/26 05:52:58;;;;;;;5.63;5.07;;;10.50;99.90;;;;;;5054615;28;20382;-68
2022/09/26 05:55:25;;;;;;;7.33;3.87;;;10.40;99.90;;;;;;5053843;28;20399;-66
2022/09/26 05:57:59;;;;;;;6.53;4.17;;;10.50;99.90;;;;;;5054598;28;20883;-68
2022/09/26 06:00:26;;;;;;;3.53;3.33;;;10.50;99.90;;;;;;5054441;28;20433;-72
2022/09/26 06:03:00;;;;;;;6.17;4.33;;;10.50;99.90;;;;;;5053271;28;20803;-67
2022/09/26 06:05:25;;;;;;;5.17;4.20;;;10.50;99.90;;;;;;5053556;28;20472;-67
2022/09/26 06:07:52;;;;;;;5.20;4.60;;;10.50;99.90;;;;;;5054622;28;20741;-70
2022/09/26 06:10:19;;;;;;;6.37;5.10;;;10.50;99.90;;;;;;5050890;28;20443;-67
2022/09/26 06:12:45;;;;;;;4.20;3.70;;;10.50;99.90;;;;;;5053177;28;20391;-67
2022/09/26 06:15:11;;;;;;;9.97;4.37;;;10.60;99.90;;;;;;5053310;28;20431;-67
2022/09/26 06:17:37;;;;;;;6.93;4.40;;;10.60;99.90;;;;;;5054393;28;20857;-72
2022/09/26 06:20:04;;;;;;;11.13;4.07;;;10.60;99.90;;;;;;5054229;28;20261;-70
2022/09/26 06:22:32;;;;;;;5.83;3.77;;;10.60;99.90;;;;;;5054178;28;20384;-67
2022/09/26 06:24:58;;;;;;;8.97;4.53;;;10.70;99.90;;;;;;5053191;28;20436;-71
2022/09/26 06:27:24;;;;;;;5.30;4.57;;;10.60;99.90;;;;;;5053101;28;20421;-67
2022/09/26 06:29:50;;;;;;;4.20;3.90;;;10.70;99.90;;;;;;5053990;28;20711;-71
2022/09/26 06:32:16;;;;;;;5.10;4.00;;;10.70;99.90;;;;;;5054059;28;20399;-67
2022/09/26 06:34:41;;;;;;;5.77;4.90;;;10.70;99.90;;;;;;5053280;28;20701;-68
2022/09/26 06:37:07;;;;;;;6.30;4.00;;;10.70;99.90;;;;;;5052856;28;20551;-67
2022/09/26 06:39:35;;;;;;;4.40;3.97;;;10.70;99.90;;;;;;5053753;28;20188;-70
2022/09/26 06:42:07;;;;;;;9.63;4.50;;;10.70;99.90;;;;;;5053866;28;20179;-68
2022/09/26 06:44:33;;;;;;;5.33;4.00;;;10.80;99.90;;;;;;5053015;28;20427;-71
2022/09/26 06:46:59;;;;;;;6.77;4.10;;;10.80;99.90;;;;;;5053746;28;20391;-67
2022/09/26 06:49:26;;;;;;;19.20;4.87;;;10.80;99.90;;;;;;5053645;28;20173;-67
2022/09/26 06:51:52;;;;;;;10.07;4.97;;;10.80;99.90;;;;;;5053890;28;20387;-70
2022/09/26 06:54:17;;;;;;;4.80;4.40;;;10.80;99.90;;;;;;5053027;28;20385;-70
2022/09/26 06:56:43;;;;;;;6.00;4.30;;;10.90;99.90;;;;;;5053440;28;20206;-67
2022/09/26 06:59:09;;;;;;;5.40;4.93;;;11.00;99.90;;;;;;5052164;28;20171;-70
2022/09/26 07:01:35;;;;;;;5.00;4.60;;;11.00;99.90;;;;;;5053299;28;20173;-70
2022/09/26 07:04:02;;;;;;;6.80;4.83;;;11.10;99.90;;;;;;5052944;28;20424;-69
2022/09/26 07:06:27;;;;;;;7.90;4.50;;;11.10;99.90;;;;;;5052325;28;20422;-69
2022/09/26 07:08:53;;;;;;;5.43;3.80;;;11.10;99.90;;;;;;5053387;28;20388;-71
2022/09/26 07:11:19;;;;;;;6.03;4.80;;;11.10;99.90;;;;;;5051483;28;20414;-68
2022/09/26 07:13:44;;;;;;;4.50;4.10;;;11.20;99.90;;;;;;5052419;28;20420;-67
2022/09/26 07:16:11;;;;;;;10.53;4.70;;;11.20;99.90;;;;;;5053422;28;20206;-68
2022/09/26 07:18:38;;;;;;;7.67;4.53;;;11.20;99.90;;;;;;5053486;28;20194;-74
2022/09/26 07:21:07;;;;;;;4.67;4.37;;;11.20;99.90;;;;;;5053443;28;20829;-71
2022/09/26 07:23:34;;;;;;;8.40;4.60;;;11.30;99.90;;;;;;5052876;28;20861;-71
2022/09/26 07:26:01;;;;;;;4.90;4.50;;;11.30;99.90;;;;;;5052675;28;20417;-67
2022/09/26 07:28:27;;;;;;;6.10;5.63;;;11.30;99.90;;;;;;5053507;28;20375;-71
2022/09/26 07:30:56;;;;;;;5.40;4.67;;;11.40;99.90;;;;;;5053268;28;20869;-72
2022/09/26 07:33:22;;;;;;;6.00;4.73;;;11.40;99.90;;;;;;5053060;28;20394;-67
2022/09/26 07:35:48;;;;;;;4.30;4.00;;;11.50;99.90;;;;;;5052499;28;20755;-68
2022/09/26 07:38:14;;;;;;;5.30;4.20;;;11.60;99.90;;;;;;5053172;28;20171;-67
2022/09/26 07:40:42;;;;;;;13.43;6.03;;;11.60;99.90;;;;;;5053139;28;20371;-69
2022/09/26 07:43:09;;;;;;;5.00;4.53;;;11.60;99.90;;;;;;5053082;28;20376;-70
2022/09/26 07:51:10;;;;;;;5.57;5.07;;;11.60;99.90;;;;;;5053002;28;20737;-68
2022/09/26 07:53:37;;;;;;;7.50;5.67;;;11.70;99.90;;;;;;5052494;28;20397;-74
2022/09/26 07:56:06;;;;;;;7.60;5.83;;;11.80;99.90;;;;;;5052825;28;20429;-70
2022/09/26 07:58:43;;;;;;;7.10;6.00;;;11.80;99.90;;;;;;5053144;28;20778;-68
2022/09/26 08:01:14;;;;;;;5.20;4.70;;;11.90;99.90;;;;;;5052964;28;20384;-71
2022/09/26 08:03:41;;;;;;;5.40;5.00;;;12.00;99.90;;;;;;5052003;28;20464;-69
2022/09/26 08:06:08;;;;;;;15.10;5.70;;;12.00;99.90;;;;;;5052663;28;20516;-67
2022/09/26 08:08:35;;;;;;;10.83;6.97;;;12.10;99.90;;;;;;5052800;28;20408;-67
2022/09/26 08:11:01;;;;;;;4.77;4.40;;;12.10;99.90;;;;;;5052857;28;20395;-68
2022/09/26 08:13:28;;;;;;;7.97;5.20;;;12.10;99.90;;;;;;5049193;28;20401;-67
2022/09/26 08:15:55;;;;;;;13.13;5.73;;;12.20;99.90;;;;;;5052017;28;20761;-67
2022/09/26 08:18:21;;;;;;;5.27;4.77;;;12.20;99.90;;;;;;5052718;28;20360;-72
2022/09/26 08:20:47;;;;;;;6.87;4.50;;;12.20;92.90;;;;;;5052907;28;20380;-67
2022/09/26 08:23:14;;;;;;;6.40;5.00;;;12.20;95.50;;;;;;5052724;28;20391;-67
2022/09/26 08:25:41;;;;;;;6.43;4.73;;;12.20;99.90;;;;;;5055627;28;20391;-66
2022/09/26 08:28:08;;;;;;;7.90;4.70;;;12.20;99.90;;;;;;5056186;28;20945;-64
2022/09/26 08:30:34;;;;;;;6.37;5.03;;;12.20;99.90;;;;;;5056313;28;20376;-71
2022/09/26 08:33:00;;;;;;;8.73;4.90;;;12.20;99.90;;;;;;5056246;28;20368;-69
2022/09/26 08:35:28;;;;;;;7.10;5.07;;;12.20;99.90;;;;;;5054166;28;20396;-65
2022/09/26 08:37:55;;;;;;;5.70;5.23;;;12.30;99.90;;;;;;5056175;28;20369;-71
2022/09/26 08:40:27;;;;;;;6.70;5.90;;;12.20;99.90;;;;;;5054880;28;20824;-66
2022/09/26 08:43:05;;;;;;;5.73;5.13;;;12.20;99.90;;;;;;5056195;28;20413;-69
2022/09/26 08:48:30;;;;;;;5.47;4.50;;;12.30;99.90;;;;;;5055869;28;20375;-67
2022/09/26 08:51:22;;;;;;;5.80;5.20;;;12.20;99.90;;;;;;5055990;28;20400;-67
2022/09/26 08:53:58;;;;;;;5.87;5.30;;;12.10;99.90;;;;;;5055110;28;20474;-70
2022/09/26 08:56:39;;;;;;;5.77;5.27;;;12.00;99.90;;;;;;5055650;28;20402;-70
2022/09/26 08:59:11;;;;;;;5.57;5.07;;;12.10;99.90;;;;;;5054436;28;20386;-69
2022/09/26 09:01:41;;;;;;;5.57;4.30;;;12.20;99.90;;;;;;5054488;28;20395;-69
2022/09/26 09:04:36;;;;;;;4.83;4.40;;;12.10;99.90;;;;;;5054658;28;20477;-70
2022/09/26 09:07:14;;;;;;;7.23;5.03;;;12.20;99.90;;;;;;5055002;28;20434;-69
2022/09/26 09:09:39;;;;;;;5.10;4.70;;;12.20;99.90;;;;;;5055568;28;20739;-67
2022/09/26 09:12:15;;;;;;;7.53;4.43;;;12.10;99.90;;;;;;5054864;28;20427;-72
2022/09/26 09:15:00;;;;;;;5.10;4.70;;;12.20;99.90;;;;;;5054528;28;20171;-71
2022/09/26 09:17:54;;;;;;;5.40;5.00;;;12.30;99.90;;;;;;5055471;28;20484;-70
2022/09/26 09:20:37;;;;;;;5.50;4.50;;;12.40;99.90;;;;;;5055223;28;20419;-70
2022/09/26 09:23:32;;;;;;;8.43;5.63;;;12.60;99.90;;;;;;5054972;28;20383;-72
2022/09/26 09:26:21;;;;;;;7.03;4.60;;;12.60;99.90;;;;;;5054078;28;20478;-72
2022/09/26 09:28:56;;;;;;;4.83;4.33;;;12.60;99.90;;;;;;5054158;28;20388;-65
2022/09/26 09:31:25;;;;;;;4.27;3.87;;;12.70;99.90;;;;;;5055405;28;20874;-70
2022/09/26 09:33:57;;;;;;;6.50;3.80;;;12.70;99.90;;;;;;5052977;28;20466;-67
2022/09/26 09:36:32;;;;;;;3.80;3.50;;;12.70;99.90;;;;;;5054883;28;20915;-66
2022/09/26 09:39:06;;;;;;;4.40;4.10;;;12.80;99.90;;;;;;5055105;28;20372;-69
2022/09/26 09:41:39;;;;;;;5.57;4.30;;;13.10;99.90;;;;;;5054122;28;20393;-66
2022/09/26 09:44:27;;;;;;;6.13;4.63;;;13.20;99.90;;;;;;5052873;28;20431;-68
2022/09/26 09:46:53;;;;;;;4.37;3.97;;;13.30;99.90;;;;;;5054819;28;20427;-68
2022/09/26 09:49:21;;;;;;;4.63;3.90;;;13.30;99.90;;;;;;5053510;28;20402;-70
2022/09/26 09:52:05;;;;;;;4.73;4.33;;;13.40;99.90;;;;;;5054716;28;20160;-68
2022/09/26 09:54:47;;;;;;;8.27;4.50;;;13.50;99.90;;;;;;5054005;28;20994;-67
2022/09/26 09:57:47;;;;;;;4.53;4.13;;;13.40;96.40;;;;;;5054728;28;20414;-65
2022/09/26 10:00:17;;;;;;;4.43;4.00;;;13.20;93.30;;;;;;5053765;28;20402;-70
2022/09/26 10:03:04;;;;;;;6.60;4.07;;;13.10;93.20;;;;;;5054256;28;20431;-68
2022/09/26 10:05:52;;;;;;;4.63;3.97;;;13.00;93.10;;;;;;5053622;28;20826;-74
2022/09/26 10:08:31;;;;;;;5.80;4.47;;;13.00;92.90;;;;;;5054464;28;20962;-68
2022/09/26 10:11:15;;;;;;;3.80;3.53;;;12.90;92.90;;;;;;5052999;28;20501;-68
2022/09/26 10:13:44;;;;;;;4.10;3.70;;;13.10;92.90;;;;;;5053830;28;20396;-66
2022/09/26 10:16:13;;;;;;;4.33;4.03;;;13.20;93.10;;;;;;5054238;28;20884;-69
2022/09/26 10:19:05;;;;;;;4.17;3.80;;;13.30;83.20;;;;;;5053736;28;20380;-69
2022/09/26 10:21:52;;;;;;;4.87;4.40;;;13.20;73.00;;;;;;5051380;28;20475;-67
2022/09/26 10:24:39;;;;;;;5.13;4.00;;;13.20;69.90;;;;;;5053393;28;20522;-66
2022/09/26 10:27:34;;;;;;;4.37;3.80;;;13.30;61.70;;;;;;5052593;28;20800;-71
2022/09/26 10:30:17;;;;;;;3.73;3.43;;;13.30;43.40;;;;;;5054089;28;20379;-66
2022/09/26 10:32:46;;;;;;;4.67;4.17;;;13.30;38.70;;;;;;5053878;28;20901;-69
2022/09/26 10:35:17;;;;;;;3.60;3.27;;;13.40;23.20;;;;;;5052859;28;20441;-69
2022/09/26 10:38:05;;;;;;;4.00;3.70;;;13.40;36.80;;;;;;5053949;28;20410;-66
2022/09/26 10:40:47;;;;;;;4.40;4.00;;;13.50;47.40;;;;;;5053672;28;20382;-68
2022/09/26 10:43:30;;;;;;;4.00;3.60;;;13.60;20.20;;;;;;5053738;28;20413;-68
2022/09/26 10:46:05;;;;;;;9.17;3.83;;;13.50;42.30;;;;;;5052634;28;20431;-68
2022/09/26 10:48:48;;;;;;;4.10;3.80;;;13.30;15.70;;;;;;5053769;28;20381;-68
2022/09/26 10:51:49;;;;;;;5.40;4.27;;;13.20;29.10;;;;;;5053404;28;20872;-69
2022/09/26 10:54:33;;;;;;;4.97;3.50;;;13.20;16.80;;;;;;5052861;28;20413;-69
2022/09/26 10:56:59;;;;;;;5.87;4.63;;;13.10;12.80;;;;;;5053120;28;20413;-68
2022/09/26 10:59:30;;;;;;;4.00;3.77;;;13.00;1.00;;;;;;5053500;28;20376;-68
2022/09/26 11:01:58;;;;;;;3.53;3.23;;;13.10;13.50;;;;;;5053434;28;20884;-65
2022/09/26 11:07:28;;;;;;;5.37;4.57;;;13.30;2.10;;;;;;5053493;28;20429;-69
2022/09/26 11:09:59;;;;;;;3.93;3.63;;;13.40;8.80;;;;;;5053540;28;20941;-65
2022/09/26 11:12:27;;;;;;;4.77;4.37;;;13.40;9.50;;;;;;5052927;28;20408;-65
2022/09/26 11:14:57;;;;;;;7.83;4.70;;;13.40;3.30;;;;;;5052331;28;20421;-69
2022/09/26 11:17:39;;;;;;;7.13;4.33;;;13.40;1.00;;;;;;5052943;28;20488;-65
2022/09/26 11:20:08;;;;;;;4.57;4.27;;;13.50;2.60;;;;;;5053237;28;20390;-67
2022/09/26 11:22:41;;;;;;;4.53;4.13;;;13.60;17.30;;;;;;5053310;28;20412;-70
2022/09/26 11:25:28;;;;;;;6.23;5.10;;;13.70;4.50;;;;;;5052343;28;20464;-66
2022/09/26 11:28:05;;;;;;;4.73;4.43;;;13.70;4.20;;;;;;5053223;28;20466;-68
2022/09/26 11:30:37;;;;;;;10.23;4.60;;;13.70;1.00;;;;;;5053346;28;20488;-66
2022/09/26 11:33:08;;;;;;;4.20;3.80;;;13.90;4.20;;;;;;5052892;28;20372;-68
2022/09/26 11:35:43;;;;;;;6.10;4.60;;;14.00;1.00;;;;;;5050539;28;20524;-68
2022/09/26 11:38:34;;;;;;;5.03;4.40;;;14.00;1.00;;;;;;5053226;28;20405;-66
2022/09/26 11:41:07;;;;;;;4.10;3.83;;;14.00;1.00;;;;;;5053256;28;20823;-64
2022/09/26 11:43:54;;;;;;;4.90;4.17;;;13.90;1.00;;;;;;5052758;28;20397;-64
2022/09/26 11:46:50;;;;;;;4.60;3.90;;;14.00;1.00;;;;;;5052904;28;20432;-64
2022/09/26 11:49:27;;;;;;;3.90;3.23;;;14.20;4.40;;;;;;5053113;28;20405;-67
2022/09/26 11:52:05;;;;;;;3.90;3.57;;;14.30;14.40;;;;;;5052183;28;20413;-64
2022/09/26 11:54:55;;;;;;;4.23;3.23;;;14.40;30.40;;;;;;5052160;28;20921;-66
2022/09/26 11:57:42;;;;;;;4.00;3.60;;;14.50;1.00;;;;;;5054423;28;20438;-64
2022/09/26 12:00:25;;;;;;;3.57;3.27;;;14.60;1.00;;;;;;5057227;28;20425;-64
2022/09/26 12:03:26;;;;;;;3.80;3.10;;;14.40;1.00;;;;;;5056823;28;20504;-63
2022/09/26 12:06:33;;;;;;;8.93;3.13;;;14.30;1.00;;;;;;5056044;28;20494;-65
2022/09/26 12:09:19;;;;;;;4.53;3.77;;;14.20;1.00;;;;;;5054478;28;20409;-67
2022/09/26 12:12:14;;;;;;;4.87;4.27;;;14.10;1.00;;;;;;5056177;28;20413;-66
2022/09/26 12:15:08;;;;;;;4.73;3.43;;;14.10;1.00;;;;;;5055967;28;20404;-66
2022/09/26 12:17:51;;;;;;;4.03;3.73;;;14.00;1.00;;;;;;5056350;28;20492;-69
2022/09/26 12:20:22;;;;;;;3.60;3.00;;;13.80;1.00;;;;;;5056443;28;20397;-65
2022/09/26 12:23:04;;;;;;;3.90;3.70;;;13.80;1.00;;;;;;5056408;28;20409;-68
2022/09/26 12:25:38;;;;;;;7.13;4.27;;;13.50;1.00;;;;;;5055325;28;20461;-64
2022/09/26 12:28:16;;;;;;;4.63;4.07;;;13.50;1.00;;;;;;5052273;28;20408;-67
2022/09/26 12:30:56;;;;;;;11.83;3.43;;;13.40;1.00;;;;;;5056274;28;20860;-66
2022/09/26 12:33:50;;;;;;;4.80;4.40;;;13.40;1.00;;;;;;5056288;28;20394;-64
2022/09/26 12:36:47;;;;;;;5.10;4.60;;;13.40;1.00;;;;;;5056026;28;20417;-65
2022/09/26 12:39:19;;;;;;;5.17;4.50;;;13.30;1.00;;;;;;5056040;28;20409;-64
2022/09/26 12:41:50;;;;;;;4.77;4.37;;;13.30;1.00;;;;;;5056144;28;20393;-64
2022/09/26 12:44:36;;;;;;;5.17;4.63;;;13.20;1.00;;;;;;5054748;28;20453;-66
2022/09/26 12:47:31;;;;;;;4.60;4.30;;;13.30;15.80;;;;;;5054687;28;20421;-64
2022/09/26 12:50:06;;;;;;;4.40;4.03;;;13.20;26.60;;;;;;5055863;28;20770;-64
2022/09/26 12:52:57;;;;;;;5.10;4.70;;;13.10;1.00;;;;;;5056090;28;20397;-66
2022/09/26 12:55:34;;;;;;;4.40;4.10;;;13.20;1.00;;;;;;5055005;28;20407;-67
2022/09/26 12:58:28;;;;;;;4.57;4.17;;;13.20;1.00;;;;;;5055751;28;20430;-64
2022/09/26 13:01:15;;;;;;;4.07;3.77;;;13.20;5.10;;;;;;5055702;28;20836;-69
2022/09/26 13:03:53;;;;;;;7.60;4.43;;;13.10;26.00;;;;;;5053452;28;20443;-66
2022/09/26 13:06:18;;;;;;;3.70;3.40;;;13.10;6.00;;;;;;5055381;28;20836;-64
2022/09/26 13:09:06;;;;;;;4.80;4.40;;;13.10;5.90;;;;;;5054971;28;20414;-69
2022/09/26 13:11:57;;;;;;;4.70;4.40;;;12.90;1.00;;;;;;5054510;28;20183;-66
2022/09/26 13:14:26;;;;;;;4.77;4.13;;;12.90;17.40;;;;;;5053943;28;20421;-64
2022/09/26 13:16:59;;;;;;;4.57;4.27;;;12.90;34.10;;;;;;5055325;28;20516;-67
2022/09/26 13:19:50;;;;;;;4.90;4.17;;;12.80;48.50;;;;;;5055048;28;20388;-71
2022/09/26 13:22:26;;;;;;;6.30;4.50;;;12.80;40.70;;;;;;5055079;28;20380;-68
2022/09/26 13:25:18;;;;;;;9.90;3.97;;;12.70;61.60;;;;;;5054102;28;20460;-69
2022/09/26 13:28:10;;;;;;;4.60;4.30;;;12.60;68.90;;;;;;5055405;28;20372;-67
2022/09/26 13:30:41;;;;;;;4.60;4.13;;;12.60;65.60;;;;;;5053382;28;20413;-69
2022/09/26 13:33:06;;;;;;;5.20;3.93;;;12.50;62.00;;;;;;5055425;28;20475;-72
2022/09/26 13:35:40;;;;;;;4.33;3.93;;;12.40;59.20;;;;;;5054352;28;20475;-69
2022/09/26 13:38:46;;;;;;;3.63;3.37;;;12.30;74.80;;;;;;5054593;28;20166;-69